sensor_id;sensor_type;location;lat;lon;timestamp;P1;durP1;ratioP1;P2;durP2;ratioP2
14528;SDS011;7351;51.194;4.098;2023-03-20T00:00:26;7.77;;;7.07;;
14528;SDS011;7351;51.194;4.098;2023-03-20T00:02:56;7.30;;;6.80;;
14528;SDS011;7351;51.194;4.098;2023-03-20T00:05:23;7.93;;;7.17;;
14528;SDS011;7351;51.194;4.098;2023-03-20T00:07:52;6.70;;;6.30;;
14528;SDS011;7351;51.194;4.098;2023-03-20T00:10:21;6.60;;;6.13;;
14528;SDS011;7351;51.194;4.098;2023-03-20T00:12:52;6.90;;;6.40;;
14528;SDS011;7351;51.194;4.098;2023-03-20T00:15:31;6.67;;;6.27;;
14528;SDS011;7351;51.194;4.098;2023-03-20T00:18:02;7.00;;;6.60;;
14528;SDS011;7351;51.194;4.098;2023-03-20T00:20:30;8.17;;;7.47;;
14528;SDS011;7351;51.194;4.098;2023-03-20T00:22:57;7.90;;;7.33;;
14528;SDS011;7351;51.194;4.098;2023-03-20T00:25:25;8.20;;;7.60;;
14528;SDS011;7351;51.194;4.098;2023-03-20T00:27:53;7.70;;;7.10;;
14528;SDS011;7351;51.194;4.098;2023-03-20T00:30:22;8.10;;;7.50;;
14528;SDS011;7351;51.194;4.098;2023-03-20T00:32:52;8.67;;;7.87;;
14528;SDS011;7351;51.194;4.098;2023-03-20T00:35:24;8.10;;;7.50;;
14528;SDS011;7351;51.194;4.098;2023-03-20T00:37:53;7.93;;;7.23;;
14528;SDS011;7351;51.194;4.098;2023-03-20T00:40:21;6.97;;;6.50;;
14528;SDS011;7351;51.194;4.098;2023-03-20T00:42:54;8.83;;;8.23;;
14528;SDS011;7351;51.194;4.098;2023-03-20T00:45:25;7.67;;;6.97;;
14528;SDS011;7351;51.194;4.098;2023-03-20T00:47:53;8.40;;;7.80;;
14528;SDS011;7351;51.194;4.098;2023-03-20T00:50:22;8.57;;;7.97;;
14528;SDS011;7351;51.194;4.098;2023-03-20T00:52:51;7.07;;;6.63;;
14528;SDS011;7351;51.194;4.098;2023-03-20T00:55:19;9.03;;;8.13;;
14528;SDS011;7351;51.194;4.098;2023-03-20T00:57:48;8.00;;;7.40;;
14528;SDS011;7351;51.194;4.098;2023-03-20T01:00:21;8.27;;;7.57;;
14528;SDS011;7351;51.194;4.098;2023-03-20T01:03:03;7.50;;;7.10;;
14528;SDS011;7351;51.194;4.098;2023-03-20T01:05:37;7.53;;;6.97;;
14528;SDS011;7351;51.194;4.098;2023-03-20T01:08:07;7.60;;;7.20;;
14528;SDS011;7351;51.194;4.098;2023-03-20T01:10:39;8.00;;;7.40;;
14528;SDS011;7351;51.194;4.098;2023-03-20T01:13:11;7.23;;;6.73;;
14528;SDS011;7351;51.194;4.098;2023-03-20T01:15:44;8.10;;;7.50;;
14528;SDS011;7351;51.194;4.098;2023-03-20T01:18:11;7.17;;;6.67;;
14528;SDS011;7351;51.194;4.098;2023-03-20T01:20:39;7.57;;;6.97;;
14528;SDS011;7351;51.194;4.098;2023-03-20T01:23:06;7.30;;;6.80;;
14528;SDS011;7351;51.194;4.098;2023-03-20T01:25:34;7.60;;;7.10;;
14528;SDS011;7351;51.194;4.098;2023-03-20T01:28:01;7.40;;;6.87;;
14528;SDS011;7351;51.194;4.098;2023-03-20T01:30:36;7.23;;;6.70;;
14528;SDS011;7351;51.194;4.098;2023-03-20T01:33:08;6.87;;;6.47;;
14528;SDS011;7351;51.194;4.098;2023-03-20T01:35:39;7.63;;;7.03;;
14528;SDS011;7351;51.194;4.098;2023-03-20T01:38:09;7.10;;;6.70;;
14528;SDS011;7351;51.194;4.098;2023-03-20T01:40:40;7.17;;;6.67;;
14528;SDS011;7351;51.194;4.098;2023-03-20T01:43:20;7.30;;;6.63;;
14528;SDS011;7351;51.194;4.098;2023-03-20T01:45:52;7.03;;;6.53;;
14528;SDS011;7351;51.194;4.098;2023-03-20T01:48:26;7.70;;;7.13;;
14528;SDS011;7351;51.194;4.098;2023-03-20T01:51:21;7.03;;;6.40;;
14528;SDS011;7351;51.194;4.098;2023-03-20T01:53:52;6.63;;;6.13;;
14528;SDS011;7351;51.194;4.098;2023-03-20T01:56:22;6.60;;;6.10;;
14528;SDS011;7351;51.194;4.098;2023-03-20T01:58:52;6.60;;;6.10;;
14528;SDS011;7351;51.194;4.098;2023-03-20T02:01:22;7.10;;;6.60;;
14528;SDS011;7351;51.194;4.098;2023-03-20T02:03:53;7.47;;;6.87;;
14528;SDS011;7351;51.194;4.098;2023-03-20T02:06:21;7.23;;;6.73;;
14528;SDS011;7351;51.194;4.098;2023-03-20T02:08:50;6.90;;;6.30;;
14528;SDS011;7351;51.194;4.098;2023-03-20T02:11:19;7.17;;;6.57;;
14528;SDS011;7351;51.194;4.098;2023-03-20T02:13:48;7.43;;;6.93;;
14528;SDS011;7351;51.194;4.098;2023-03-20T02:16:17;7.30;;;6.70;;
14528;SDS011;7351;51.194;4.098;2023-03-20T02:18:46;7.10;;;6.60;;
14528;SDS011;7351;51.194;4.098;2023-03-20T02:24:31;7.33;;;6.27;;
14528;SDS011;7351;51.194;4.098;2023-03-20T02:27:22;6.93;;;6.37;;
14528;SDS011;7351;51.194;4.098;2023-03-20T02:33:07;6.70;;;6.20;;
14528;SDS011;7351;51.194;4.098;2023-03-20T02:36:13;7.40;;;6.77;;
14528;SDS011;7351;51.194;4.098;2023-03-20T02:41:55;6.60;;;6.10;;
14528;SDS011;7351;51.194;4.098;2023-03-20T02:44:27;6.50;;;6.10;;
14528;SDS011;7351;51.194;4.098;2023-03-20T02:47:01;7.07;;;6.47;;
14528;SDS011;7351;51.194;4.098;2023-03-20T02:49:38;7.23;;;6.63;;
14528;SDS011;7351;51.194;4.098;2023-03-20T02:52:15;6.10;;;5.60;;
14528;SDS011;7351;51.194;4.098;2023-03-20T02:54:49;7.60;;;6.87;;
14528;SDS011;7351;51.194;4.098;2023-03-20T02:57:23;6.83;;;6.30;;
14528;SDS011;7351;51.194;4.098;2023-03-20T03:00:00;6.97;;;6.33;;
14528;SDS011;7351;51.194;4.098;2023-03-20T03:02:36;7.33;;;6.83;;
14528;SDS011;7351;51.194;4.098;2023-03-20T03:05:09;7.67;;;7.03;;
14528;SDS011;7351;51.194;4.098;2023-03-20T03:07:40;8.13;;;7.33;;
14528;SDS011;7351;51.194;4.098;2023-03-20T03:10:13;7.30;;;6.80;;
14528;SDS011;7351;51.194;4.098;2023-03-20T03:12:47;6.30;;;5.80;;
14528;SDS011;7351;51.194;4.098;2023-03-20T03:15:18;7.53;;;6.83;;
14528;SDS011;7351;51.194;4.098;2023-03-20T03:17:50;6.60;;;6.10;;
14528;SDS011;7351;51.194;4.098;2023-03-20T03:20:19;7.17;;;6.57;;
14528;SDS011;7351;51.194;4.098;2023-03-20T03:22:48;7.27;;;6.60;;
14528;SDS011;7351;51.194;4.098;2023-03-20T03:25:17;7.10;;;6.53;;
14528;SDS011;7351;51.194;4.098;2023-03-20T03:27:48;6.47;;;5.97;;
14528;SDS011;7351;51.194;4.098;2023-03-20T03:30:27;6.23;;;5.73;;
14528;SDS011;7351;51.194;4.098;2023-03-20T03:33:02;7.77;;;7.00;;
14528;SDS011;7351;51.194;4.098;2023-03-20T03:35:39;6.97;;;6.30;;
14528;SDS011;7351;51.194;4.098;2023-03-20T03:38:11;6.90;;;6.40;;
14528;SDS011;7351;51.194;4.098;2023-03-20T03:40:55;7.47;;;6.87;;
14528;SDS011;7351;51.194;4.098;2023-03-20T03:43:33;6.37;;;5.97;;
14528;SDS011;7351;51.194;4.098;2023-03-20T03:46:07;7.73;;;7.13;;
14528;SDS011;7351;51.194;4.098;2023-03-20T03:48:39;7.60;;;6.30;;
14528;SDS011;7351;51.194;4.098;2023-03-20T03:51:10;6.63;;;6.07;;
14528;SDS011;7351;51.194;4.098;2023-03-20T03:53:40;6.70;;;6.27;;
14528;SDS011;7351;51.194;4.098;2023-03-20T03:56:15;7.23;;;6.63;;
14528;SDS011;7351;51.194;4.098;2023-03-20T03:58:46;7.57;;;6.80;;
14528;SDS011;7351;51.194;4.098;2023-03-20T04:01:15;7.13;;;6.63;;
14528;SDS011;7351;51.194;4.098;2023-03-20T04:03:45;7.23;;;6.60;;
14528;SDS011;7351;51.194;4.098;2023-03-20T04:06:15;7.57;;;6.80;;
14528;SDS011;7351;51.194;4.098;2023-03-20T04:08:44;6.30;;;5.80;;
14528;SDS011;7351;51.194;4.098;2023-03-20T04:11:14;7.17;;;6.67;;
14528;SDS011;7351;51.194;4.098;2023-03-20T04:13:44;7.40;;;6.80;;
14528;SDS011;7351;51.194;4.098;2023-03-20T04:16:13;7.23;;;6.73;;
14528;SDS011;7351;51.194;4.098;2023-03-20T04:18:41;6.60;;;6.00;;
14528;SDS011;7351;51.194;4.098;2023-03-20T04:21:09;6.80;;;6.20;;
14528;SDS011;7351;51.194;4.098;2023-03-20T04:23:36;7.60;;;7.00;;
14528;SDS011;7351;51.194;4.098;2023-03-20T04:26:04;6.57;;;6.07;;
14528;SDS011;7351;51.194;4.098;2023-03-20T04:28:33;7.27;;;6.43;;
14528;SDS011;7351;51.194;4.098;2023-03-20T04:31:00;8.03;;;7.43;;
14528;SDS011;7351;51.194;4.098;2023-03-20T04:33:28;7.40;;;6.53;;
14528;SDS011;7351;51.194;4.098;2023-03-20T04:35:55;6.73;;;6.17;;
14528;SDS011;7351;51.194;4.098;2023-03-20T04:38:22;6.87;;;6.33;;
14528;SDS011;7351;51.194;4.098;2023-03-20T04:40:50;6.50;;;6.00;;
14528;SDS011;7351;51.194;4.098;2023-03-20T04:43:17;8.10;;;7.50;;
14528;SDS011;7351;51.194;4.098;2023-03-20T04:45:45;6.70;;;6.13;;
14528;SDS011;7351;51.194;4.098;2023-03-20T04:48:13;9.87;;;7.40;;
14528;SDS011;7351;51.194;4.098;2023-03-20T04:50:40;8.07;;;7.37;;
14528;SDS011;7351;51.194;4.098;2023-03-20T04:53:07;10.33;;;9.53;;
14528;SDS011;7351;51.194;4.098;2023-03-20T04:55:34;11.23;;;10.23;;
14528;SDS011;7351;51.194;4.098;2023-03-20T04:58:01;8.97;;;8.37;;
14528;SDS011;7351;51.194;4.098;2023-03-20T05:00:28;9.60;;;8.60;;
14528;SDS011;7351;51.194;4.098;2023-03-20T05:02:56;9.10;;;8.30;;
14528;SDS011;7351;51.194;4.098;2023-03-20T05:05:23;8.93;;;8.03;;
14528;SDS011;7351;51.194;4.098;2023-03-20T05:07:51;8.10;;;7.47;;
14528;SDS011;7351;51.194;4.098;2023-03-20T05:10:18;9.83;;;8.60;;
14528;SDS011;7351;51.194;4.098;2023-03-20T05:12:45;10.23;;;9.23;;
14528;SDS011;7351;51.194;4.098;2023-03-20T05:15:13;8.53;;;7.80;;
14528;SDS011;7351;51.194;4.098;2023-03-20T05:17:40;7.97;;;7.23;;
14528;SDS011;7351;51.194;4.098;2023-03-20T05:20:09;9.57;;;7.60;;
14528;SDS011;7351;51.194;4.098;2023-03-20T05:22:36;12.47;;;7.50;;
14528;SDS011;7351;51.194;4.098;2023-03-20T05:25:03;8.47;;;5.63;;
14528;SDS011;7351;51.194;4.098;2023-03-20T05:27:31;7.33;;;6.60;;
14528;SDS011;7351;51.194;4.098;2023-03-20T05:29:58;7.90;;;6.07;;
14528;SDS011;7351;51.194;4.098;2023-03-20T05:32:25;6.97;;;6.27;;
14528;SDS011;7351;51.194;4.098;2023-03-20T05:34:52;7.80;;;6.47;;
14528;SDS011;7351;51.194;4.098;2023-03-20T05:37:20;7.20;;;6.30;;
14528;SDS011;7351;51.194;4.098;2023-03-20T05:39:47;7.43;;;6.63;;
14528;SDS011;7351;51.194;4.098;2023-03-20T05:42:14;7.27;;;6.40;;
14528;SDS011;7351;51.194;4.098;2023-03-20T05:44:41;8.90;;;5.83;;
14528;SDS011;7351;51.194;4.098;2023-03-20T05:47:08;7.40;;;5.97;;
14528;SDS011;7351;51.194;4.098;2023-03-20T05:49:35;7.53;;;5.97;;
14528;SDS011;7351;51.194;4.098;2023-03-20T05:52:02;7.10;;;6.40;;
14528;SDS011;7351;51.194;4.098;2023-03-20T05:54:31;9.40;;;5.93;;
14528;SDS011;7351;51.194;4.098;2023-03-20T05:56:58;6.70;;;6.00;;
14528;SDS011;7351;51.194;4.098;2023-03-20T05:59:25;6.13;;;5.53;;
14528;SDS011;7351;51.194;4.098;2023-03-20T06:01:52;7.37;;;5.97;;
14528;SDS011;7351;51.194;4.098;2023-03-20T06:04:19;7.40;;;6.03;;
14528;SDS011;7351;51.194;4.098;2023-03-20T06:06:46;7.03;;;6.30;;
14528;SDS011;7351;51.194;4.098;2023-03-20T06:09:13;6.87;;;6.17;;
14528;SDS011;7351;51.194;4.098;2023-03-20T06:11:41;7.40;;;5.80;;
14528;SDS011;7351;51.194;4.098;2023-03-20T06:14:08;6.70;;;5.93;;
14528;SDS011;7351;51.194;4.098;2023-03-20T06:16:35;7.27;;;6.33;;
14528;SDS011;7351;51.194;4.098;2023-03-20T06:19:02;6.57;;;5.93;;
14528;SDS011;7351;51.194;4.098;2023-03-20T06:21:29;8.73;;;6.53;;
14528;SDS011;7351;51.194;4.098;2023-03-20T06:24:02;8.50;;;5.70;;
14528;SDS011;7351;51.194;4.098;2023-03-20T06:32:28;8.53;;;5.73;;
14528;SDS011;7351;51.194;4.098;2023-03-20T06:34:55;8.53;;;5.67;;
14528;SDS011;7351;51.194;4.098;2023-03-20T06:37:22;9.17;;;5.10;;
14528;SDS011;7351;51.194;4.098;2023-03-20T06:54:42;13.07;;;7.67;;
14528;SDS011;7351;51.194;4.098;2023-03-20T06:57:10;8.60;;;6.00;;
14528;SDS011;7351;51.194;4.098;2023-03-20T06:59:37;15.30;;;7.37;;
14528;SDS011;7351;51.194;4.098;2023-03-20T07:02:04;10.37;;;5.83;;
14528;SDS011;7351;51.194;4.098;2023-03-20T07:04:32;11.67;;;6.87;;
14528;SDS011;7351;51.194;4.098;2023-03-20T07:06:59;11.23;;;6.37;;
14528;SDS011;7351;51.194;4.098;2023-03-20T07:09:27;10.77;;;6.10;;
14528;SDS011;7351;51.194;4.098;2023-03-20T07:11:54;16.47;;;6.37;;
14528;SDS011;7351;51.194;4.098;2023-03-20T07:14:21;13.93;;;5.40;;
14528;SDS011;7351;51.194;4.098;2023-03-20T07:16:48;11.80;;;6.30;;
14528;SDS011;7351;51.194;4.098;2023-03-20T07:19:15;12.97;;;6.87;;
14528;SDS011;7351;51.194;4.098;2023-03-20T07:21:42;19.30;;;6.43;;
14528;SDS011;7351;51.194;4.098;2023-03-20T07:24:10;10.20;;;6.20;;
14528;SDS011;7351;51.194;4.098;2023-03-20T07:26:38;12.30;;;5.97;;
14528;SDS011;7351;51.194;4.098;2023-03-20T07:29:06;8.50;;;6.50;;
14528;SDS011;7351;51.194;4.098;2023-03-20T07:31:33;13.33;;;6.73;;
14528;SDS011;7351;51.194;4.098;2023-03-20T07:34:00;13.70;;;6.67;;
14528;SDS011;7351;51.194;4.098;2023-03-20T07:36:27;11.43;;;6.20;;
14528;SDS011;7351;51.194;4.098;2023-03-20T07:38:54;12.67;;;5.87;;
14528;SDS011;7351;51.194;4.098;2023-03-20T07:41:21;15.93;;;6.47;;
14528;SDS011;7351;51.194;4.098;2023-03-20T07:43:49;17.57;;;6.70;;
14528;SDS011;7351;51.194;4.098;2023-03-20T07:46:16;12.20;;;6.20;;
14528;SDS011;7351;51.194;4.098;2023-03-20T07:48:43;15.47;;;6.63;;
14528;SDS011;7351;51.194;4.098;2023-03-20T07:51:10;17.00;;;7.43;;
14528;SDS011;7351;51.194;4.098;2023-03-20T07:53:39;11.57;;;5.80;;
14528;SDS011;7351;51.194;4.098;2023-03-20T07:56:06;13.17;;;6.47;;
14528;SDS011;7351;51.194;4.098;2023-03-20T07:58:34;8.93;;;5.47;;
14528;SDS011;7351;51.194;4.098;2023-03-20T08:01:02;10.73;;;6.03;;
14528;SDS011;7351;51.194;4.098;2023-03-20T08:03:30;13.30;;;5.67;;
14528;SDS011;7351;51.194;4.098;2023-03-20T08:05:57;12.67;;;6.03;;
14528;SDS011;7351;51.194;4.098;2023-03-20T08:08:24;13.47;;;6.57;;
14528;SDS011;7351;51.194;4.098;2023-03-20T08:10:51;10.87;;;6.37;;
14528;SDS011;7351;51.194;4.098;2023-03-20T08:13:17;8.80;;;5.77;;
14528;SDS011;7351;51.194;4.098;2023-03-20T08:15:45;9.73;;;6.30;;
14528;SDS011;7351;51.194;4.098;2023-03-20T08:18:14;7.10;;;5.20;;
14528;SDS011;7351;51.194;4.098;2023-03-20T08:20:41;12.10;;;6.17;;
14528;SDS011;7351;51.194;4.098;2023-03-20T08:23:07;12.57;;;6.13;;
14528;SDS011;7351;51.194;4.098;2023-03-20T08:25:34;13.07;;;5.27;;
14528;SDS011;7351;51.194;4.098;2023-03-20T08:28:02;9.17;;;5.27;;
14528;SDS011;7351;51.194;4.098;2023-03-20T08:30:29;7.20;;;5.80;;
14528;SDS011;7351;51.194;4.098;2023-03-20T08:32:56;12.57;;;5.77;;
14528;SDS011;7351;51.194;4.098;2023-03-20T08:35:24;11.50;;;5.47;;
14528;SDS011;7351;51.194;4.098;2023-03-20T08:37:51;7.60;;;5.13;;
14528;SDS011;7351;51.194;4.098;2023-03-20T08:40:18;7.93;;;4.93;;
14528;SDS011;7351;51.194;4.098;2023-03-20T08:42:45;7.90;;;6.10;;
14528;SDS011;7351;51.194;4.098;2023-03-20T08:45:13;10.17;;;5.43;;
14528;SDS011;7351;51.194;4.098;2023-03-20T08:47:41;9.87;;;5.73;;
14528;SDS011;7351;51.194;4.098;2023-03-20T08:50:08;9.80;;;5.43;;
14528;SDS011;7351;51.194;4.098;2023-03-20T08:52:38;13.60;;;5.60;;
14528;SDS011;7351;51.194;4.098;2023-03-20T08:55:08;9.03;;;5.60;;
14528;SDS011;7351;51.194;4.098;2023-03-20T08:57:35;6.97;;;5.17;;
14528;SDS011;7351;51.194;4.098;2023-03-20T09:00:03;12.17;;;5.93;;
14528;SDS011;7351;51.194;4.098;2023-03-20T09:02:31;14.87;;;5.90;;
14528;SDS011;7351;51.194;4.098;2023-03-20T09:04:58;7.70;;;5.43;;
14528;SDS011;7351;51.194;4.098;2023-03-20T09:07:25;8.10;;;6.50;;
14528;SDS011;7351;51.194;4.098;2023-03-20T09:09:53;10.53;;;6.47;;
14528;SDS011;7351;51.194;4.098;2023-03-20T09:12:20;12.70;;;6.50;;
14528;SDS011;7351;51.194;4.098;2023-03-20T09:14:48;9.63;;;6.70;;
14528;SDS011;7351;51.194;4.098;2023-03-20T09:17:15;13.73;;;8.47;;
14528;SDS011;7351;51.194;4.098;2023-03-20T09:19:42;10.97;;;7.23;;
14528;SDS011;7351;51.194;4.098;2023-03-20T09:22:09;13.10;;;7.87;;
14528;SDS011;7351;51.194;4.098;2023-03-20T09:24:38;12.33;;;7.13;;
14528;SDS011;7351;51.194;4.098;2023-03-20T09:27:07;13.33;;;7.63;;
14528;SDS011;7351;51.194;4.098;2023-03-20T09:29:34;11.83;;;7.53;;
14528;SDS011;7351;51.194;4.098;2023-03-20T09:32:04;13.03;;;8.17;;
14528;SDS011;7351;51.194;4.098;2023-03-20T09:34:31;13.07;;;7.70;;
14528;SDS011;7351;51.194;4.098;2023-03-20T09:36:58;14.47;;;7.63;;
14528;SDS011;7351;51.194;4.098;2023-03-20T09:39:27;15.17;;;8.33;;
14528;SDS011;7351;51.194;4.098;2023-03-20T09:41:54;17.00;;;8.07;;
14528;SDS011;7351;51.194;4.098;2023-03-20T09:44:32;14.07;;;8.17;;
14528;SDS011;7351;51.194;4.098;2023-03-20T09:47:11;11.97;;;8.33;;
14528;SDS011;7351;51.194;4.098;2023-03-20T09:49:44;15.10;;;8.40;;
14528;SDS011;7351;51.194;4.098;2023-03-20T09:52:20;13.37;;;7.13;;
14528;SDS011;7351;51.194;4.098;2023-03-20T09:54:53;13.57;;;7.17;;
14528;SDS011;7351;51.194;4.098;2023-03-20T09:57:23;14.20;;;7.60;;
14528;SDS011;7351;51.194;4.098;2023-03-20T09:59:54;10.80;;;6.33;;
14528;SDS011;7351;51.194;4.098;2023-03-20T10:02:27;9.53;;;6.93;;
14528;SDS011;7351;51.194;4.098;2023-03-20T10:05:02;12.20;;;6.97;;
14528;SDS011;7351;51.194;4.098;2023-03-20T10:07:40;11.30;;;6.67;;
14528;SDS011;7351;51.194;4.098;2023-03-20T10:10:08;14.57;;;7.37;;
14528;SDS011;7351;51.194;4.098;2023-03-20T10:12:42;16.87;;;6.60;;
14528;SDS011;7351;51.194;4.098;2023-03-20T10:15:20;25.63;;;7.00;;
14528;SDS011;7351;51.194;4.098;2023-03-20T10:17:58;17.93;;;6.70;;
14528;SDS011;7351;51.194;4.098;2023-03-20T10:20:32;11.70;;;6.23;;
14528;SDS011;7351;51.194;4.098;2023-03-20T10:23:02;13.53;;;7.27;;
14528;SDS011;7351;51.194;4.098;2023-03-20T10:25:33;14.30;;;6.13;;
14528;SDS011;7351;51.194;4.098;2023-03-20T10:28:05;14.67;;;6.37;;
14528;SDS011;7351;51.194;4.098;2023-03-20T10:30:43;10.23;;;5.57;;
14528;SDS011;7351;51.194;4.098;2023-03-20T10:33:21;11.57;;;5.27;;
14528;SDS011;7351;51.194;4.098;2023-03-20T10:36:02;10.90;;;6.03;;
14528;SDS011;7351;51.194;4.098;2023-03-20T10:38:38;26.03;;;6.27;;
14528;SDS011;7351;51.194;4.098;2023-03-20T10:41:11;12.37;;;5.07;;
14528;SDS011;7351;51.194;4.098;2023-03-20T10:43:41;12.23;;;5.87;;
14528;SDS011;7351;51.194;4.098;2023-03-20T10:46:12;9.37;;;5.67;;
14528;SDS011;7351;51.194;4.098;2023-03-20T10:48:43;10.47;;;6.37;;
14528;SDS011;7351;51.194;4.098;2023-03-20T10:51:13;13.43;;;5.30;;
14528;SDS011;7351;51.194;4.098;2023-03-20T10:53:44;13.13;;;6.50;;
14528;SDS011;7351;51.194;4.098;2023-03-20T10:56:14;10.90;;;5.60;;
14528;SDS011;7351;51.194;4.098;2023-03-20T10:58:46;14.53;;;4.53;;
14528;SDS011;7351;51.194;4.098;2023-03-20T11:01:24;8.83;;;5.13;;
14528;SDS011;7351;51.194;4.098;2023-03-20T11:03:52;10.43;;;5.90;;
14528;SDS011;7351;51.194;4.098;2023-03-20T11:06:21;11.77;;;6.47;;
14528;SDS011;7351;51.194;4.098;2023-03-20T11:08:52;13.40;;;4.90;;
14528;SDS011;7351;51.194;4.098;2023-03-20T11:11:22;7.40;;;5.23;;
14528;SDS011;7351;51.194;4.098;2023-03-20T11:13:52;9.07;;;4.37;;
14528;SDS011;7351;51.194;4.098;2023-03-20T11:16:20;11.70;;;6.17;;
14528;SDS011;7351;51.194;4.098;2023-03-20T11:18:50;11.23;;;5.67;;
14528;SDS011;7351;51.194;4.098;2023-03-20T11:21:20;14.40;;;5.47;;
14528;SDS011;7351;51.194;4.098;2023-03-20T11:23:50;12.27;;;5.40;;
14528;SDS011;7351;51.194;4.098;2023-03-20T11:26:19;16.43;;;6.40;;
14528;SDS011;7351;51.194;4.098;2023-03-20T11:28:58;6.87;;;4.93;;
14528;SDS011;7351;51.194;4.098;2023-03-20T11:31:28;8.87;;;4.67;;
14528;SDS011;7351;51.194;4.098;2023-03-20T11:34:08;14.77;;;6.50;;
14528;SDS011;7351;51.194;4.098;2023-03-20T11:36:46;15.20;;;5.80;;
14528;SDS011;7351;51.194;4.098;2023-03-20T11:39:21;19.80;;;5.47;;
14528;SDS011;7351;51.194;4.098;2023-03-20T11:41:51;11.30;;;5.83;;
14528;SDS011;7351;51.194;4.098;2023-03-20T11:44:20;14.23;;;5.77;;
14528;SDS011;7351;51.194;4.098;2023-03-20T11:46:53;11.73;;;5.87;;
14528;SDS011;7351;51.194;4.098;2023-03-20T11:49:23;13.20;;;6.10;;
14528;SDS011;7351;51.194;4.098;2023-03-20T11:51:51;7.50;;;4.97;;
14528;SDS011;7351;51.194;4.098;2023-03-20T11:54:21;8.53;;;5.70;;
14528;SDS011;7351;51.194;4.098;2023-03-20T11:56:52;12.47;;;5.03;;
14528;SDS011;7351;51.194;4.098;2023-03-20T11:59:20;10.07;;;5.57;;
14528;SDS011;7351;51.194;4.098;2023-03-20T12:01:52;11.40;;;5.73;;
14528;SDS011;7351;51.194;4.098;2023-03-20T12:04:26;9.10;;;5.77;;
14528;SDS011;7351;51.194;4.098;2023-03-20T12:06:55;11.70;;;5.60;;
14528;SDS011;7351;51.194;4.098;2023-03-20T12:09:34;11.97;;;5.37;;
14528;SDS011;7351;51.194;4.098;2023-03-20T12:12:07;11.70;;;5.87;;
14528;SDS011;7351;51.194;4.098;2023-03-20T12:14:45;8.57;;;5.40;;
14528;SDS011;7351;51.194;4.098;2023-03-20T12:17:24;8.80;;;6.23;;
14528;SDS011;7351;51.194;4.098;2023-03-20T12:19:59;43.27;;;7.17;;
14528;SDS011;7351;51.194;4.098;2023-03-20T12:22:31;27.47;;;7.20;;
14528;SDS011;7351;51.194;4.098;2023-03-20T12:25:04;22.53;;;5.53;;
14528;SDS011;7351;51.194;4.098;2023-03-20T12:27:39;18.37;;;6.40;;
14528;SDS011;7351;51.194;4.098;2023-03-20T12:30:13;15.37;;;5.87;;
14528;SDS011;7351;51.194;4.098;2023-03-20T12:32:47;17.60;;;6.00;;
14528;SDS011;7351;51.194;4.098;2023-03-20T12:35:23;19.17;;;6.53;;
14528;SDS011;7351;51.194;4.098;2023-03-20T12:37:55;11.77;;;5.63;;
14528;SDS011;7351;51.194;4.098;2023-03-20T12:40:23;15.17;;;6.27;;
14528;SDS011;7351;51.194;4.098;2023-03-20T12:43:01;10.57;;;5.50;;
14528;SDS011;7351;51.194;4.098;2023-03-20T12:45:32;13.43;;;6.60;;
14528;SDS011;7351;51.194;4.098;2023-03-20T12:48:09;9.17;;;4.77;;
14528;SDS011;7351;51.194;4.098;2023-03-20T12:50:46;8.37;;;5.03;;
14528;SDS011;7351;51.194;4.098;2023-03-20T12:53:27;11.97;;;4.90;;
14528;SDS011;7351;51.194;4.098;2023-03-20T12:56:05;12.33;;;4.87;;
14528;SDS011;7351;51.194;4.098;2023-03-20T12:58:43;12.03;;;5.07;;
14528;SDS011;7351;51.194;4.098;2023-03-20T13:01:14;9.83;;;5.40;;
14528;SDS011;7351;51.194;4.098;2023-03-20T13:03:51;13.27;;;5.27;;
14528;SDS011;7351;51.194;4.098;2023-03-20T13:06:50;11.80;;;4.80;;
14528;SDS011;7351;51.194;4.098;2023-03-20T13:12:36;11.97;;;4.87;;
14528;SDS011;7351;51.194;4.098;2023-03-20T13:15:12;12.40;;;5.43;;
14528;SDS011;7351;51.194;4.098;2023-03-20T13:17:48;12.23;;;5.43;;
14528;SDS011;7351;51.194;4.098;2023-03-20T13:20:22;7.80;;;5.07;;
14528;SDS011;7351;51.194;4.098;2023-03-20T13:25:57;6.47;;;4.70;;
14528;SDS011;7351;51.194;4.098;2023-03-20T13:28:37;7.03;;;5.57;;
14528;SDS011;7351;51.194;4.098;2023-03-20T13:31:16;10.20;;;5.00;;
14528;SDS011;7351;51.194;4.098;2023-03-20T13:33:52;10.90;;;5.50;;
14528;SDS011;7351;51.194;4.098;2023-03-20T13:36:28;10.70;;;5.37;;
14528;SDS011;7351;51.194;4.098;2023-03-20T13:39:11;733.47;;;668.83;;
14528;SDS011;7351;51.194;4.098;2023-03-20T13:41:43;853.57;;;776.13;;
14528;SDS011;7351;51.194;4.098;2023-03-20T13:44:13;817.93;;;744.63;;
14528;SDS011;7351;51.194;4.098;2023-03-20T13:46:45;679.53;;;620.53;;
14528;SDS011;7351;51.194;4.098;2023-03-20T13:49:17;704.90;;;643.47;;
14528;SDS011;7351;51.194;4.098;2023-03-20T13:51:50;659.63;;;602.43;;
14528;SDS011;7351;51.194;4.098;2023-03-20T13:54:31;653.70;;;596.60;;
14528;SDS011;7351;51.194;4.098;2023-03-20T13:57:09;625.00;;;570.77;;
14528;SDS011;7351;51.194;4.098;2023-03-20T14:00:00;575.97;;;525.97;;
14528;SDS011;7351;51.194;4.098;2023-03-20T14:02:34;565.10;;;516.27;;
14528;SDS011;7351;51.194;4.098;2023-03-20T14:05:11;560.07;;;512.13;;
14528;SDS011;7351;51.194;4.098;2023-03-20T14:07:43;552.90;;;505.60;;
14528;SDS011;7351;51.194;4.098;2023-03-20T14:13:06;504.63;;;462.90;;
14528;SDS011;7351;51.194;4.098;2023-03-20T14:15:39;485.53;;;446.40;;
14528;SDS011;7351;51.194;4.098;2023-03-20T14:18:14;477.87;;;439.10;;
14528;SDS011;7351;51.194;4.098;2023-03-20T14:20:43;461.63;;;425.30;;
14528;SDS011;7351;51.194;4.098;2023-03-20T14:23:17;463.27;;;426.60;;
14528;SDS011;7351;51.194;4.098;2023-03-20T14:25:47;450.63;;;415.67;;
14528;SDS011;7351;51.194;4.098;2023-03-20T14:31:12;426.37;;;392.97;;
14528;SDS011;7351;51.194;4.098;2023-03-20T14:33:52;409.23;;;377.00;;
14528;SDS011;7351;51.194;4.098;2023-03-20T14:36:28;423.07;;;391.27;;
14528;SDS011;7351;51.194;4.098;2023-03-20T14:39:13;401.00;;;371.23;;
14528;SDS011;7351;51.194;4.098;2023-03-20T14:41:53;395.57;;;365.97;;
14528;SDS011;7351;51.194;4.098;2023-03-20T14:44:31;379.10;;;351.40;;
14528;SDS011;7351;51.194;4.098;2023-03-20T14:47:16;367.33;;;340.53;;
14528;SDS011;7351;51.194;4.098;2023-03-20T14:49:49;360.77;;;334.10;;
14528;SDS011;7351;51.194;4.098;2023-03-20T14:52:28;335.80;;;310.43;;
14528;SDS011;7351;51.194;4.098;2023-03-20T14:55:23;316.87;;;292.87;;
14528;SDS011;7351;51.194;4.098;2023-03-20T14:58:02;322.63;;;298.53;;
14528;SDS011;7351;51.194;4.098;2023-03-20T15:00:32;317.57;;;294.07;;
14528;SDS011;7351;51.194;4.098;2023-03-20T15:03:07;298.63;;;276.27;;
14528;SDS011;7351;51.194;4.098;2023-03-20T15:05:36;283.60;;;262.13;;
14528;SDS011;7351;51.194;4.098;2023-03-20T15:08:05;263.20;;;243.77;;
14528;SDS011;7351;51.194;4.098;2023-03-20T15:10:35;265.00;;;244.50;;
14528;SDS011;7351;51.194;4.098;2023-03-20T15:13:12;240.07;;;221.10;;
14528;SDS011;7351;51.194;4.098;2023-03-20T15:15:50;244.90;;;226.47;;
14528;SDS011;7351;51.194;4.098;2023-03-20T15:18:19;235.67;;;218.10;;
14528;SDS011;7351;51.194;4.098;2023-03-20T15:20:47;217.20;;;200.67;;
14528;SDS011;7351;51.194;4.098;2023-03-20T15:23:14;213.10;;;196.80;;
14528;SDS011;7351;51.194;4.098;2023-03-20T15:25:42;220.70;;;204.03;;
14528;SDS011;7351;51.194;4.098;2023-03-20T15:28:12;212.37;;;195.77;;
14528;SDS011;7351;51.194;4.098;2023-03-20T15:30:41;505.03;;;466.33;;
14528;SDS011;7351;51.194;4.098;2023-03-20T15:33:13;568.03;;;523.27;;
14528;SDS011;7351;51.194;4.098;2023-03-20T15:35:43;516.13;;;476.90;;
14528;SDS011;7351;51.194;4.098;2023-03-20T15:38:11;478.70;;;443.37;;
14528;SDS011;7351;51.194;4.098;2023-03-20T15:40:41;444.20;;;412.53;;
14528;SDS011;7351;51.194;4.098;2023-03-20T15:43:19;422.07;;;392.17;;
14528;SDS011;7351;51.194;4.098;2023-03-20T15:45:49;388.70;;;361.30;;
14528;SDS011;7351;51.194;4.098;2023-03-20T15:48:20;344.07;;;320.33;;
14528;SDS011;7351;51.194;4.098;2023-03-20T15:50:50;306.37;;;285.33;;
14528;SDS011;7351;51.194;4.098;2023-03-20T15:53:22;271.23;;;251.90;;